sensor_id;sensor_type;location;lat;lon;timestamp;pressure;altitude;pressure_sealevel;temperature;humidity
18652;BME280;9455;54.302;10.124;2022-12-10T00:01:45;100879.56;;;0.64;94.24
18652;BME280;9455;54.302;10.124;2022-12-10T00:04:13;100882.88;;;0.69;94.67
18652;BME280;9455;54.302;10.124;2022-12-10T00:06:40;100879.13;;;0.54;94.36
18652;BME280;9455;54.302;10.124;2022-12-10T00:09:10;100882.06;;;0.67;94.66
18652;BME280;9455;54.302;10.124;2022-12-10T00:11:38;100891.13;;;0.60;94.41
18652;BME280;9455;54.302;10.124;2022-12-10T00:14:05;100892.69;;;0.64;94.57
18652;BME280;9455;54.302;10.124;2022-12-10T00:16:34;100886.38;;;0.49;94.76
18652;BME280;9455;54.302;10.124;2022-12-10T00:19:02;100889.38;;;0.60;94.74
18652;BME280;9455;54.302;10.124;2022-12-10T00:21:30;100886.69;;;0.62;95.22
18652;BME280;9455;54.302;10.124;2022-12-10T00:23:57;100894.19;;;0.51;94.57
18652;BME280;9455;54.302;10.124;2022-12-10T00:26:25;100894.19;;;0.51;95.10
18652;BME280;9455;54.302;10.124;2022-12-10T00:28:53;100886.75;;;0.60;95.33
18652;BME280;9455;54.302;10.124;2022-12-10T00:31:22;100885.78;;;0.43;95.02
18652;BME280;9455;54.302;10.124;2022-12-10T00:33:52;100892.38;;;0.51;94.64
18652;BME280;9455;54.302;10.124;2022-12-10T00:36:21;100886.16;;;0.54;94.27
18652;BME280;9455;54.302;10.124;2022-12-10T00:38:48;100890.06;;;0.45;94.78
18652;BME280;9455;54.302;10.124;2022-12-10T00:41:16;100880.06;;;0.53;95.16
18652;BME280;9455;54.302;10.124;2022-12-10T00:43:44;100879.94;;;0.36;95.11
18652;BME280;9455;54.302;10.124;2022-12-10T00:46:11;100881.06;;;0.31;95.42
18652;BME280;9455;54.302;10.124;2022-12-10T00:48:38;100879.63;;;0.44;94.92
18652;BME280;9455;54.302;10.124;2022-12-10T00:51:09;100881.31;;;0.45;94.55
18652;BME280;9455;54.302;10.124;2022-12-10T00:53:38;100877.97;;;0.41;94.62
18652;BME280;9455;54.302;10.124;2022-12-10T00:56:05;100878.28;;;0.54;94.28
18652;BME280;9455;54.302;10.124;2022-12-10T00:58:34;100880.13;;;0.52;93.77
18652;BME280;9455;54.302;10.124;2022-12-10T01:01:10;100889.56;;;0.36;94.53
18652;BME280;9455;54.302;10.124;2022-12-10T01:03:38;100880.41;;;0.46;93.83
18652;BME280;9455;54.302;10.124;2022-12-10T01:06:11;100889.81;;;0.50;94.54
18652;BME280;9455;54.302;10.124;2022-12-10T01:08:38;100892.69;;;0.45;94.40
18652;BME280;9455;54.302;10.124;2022-12-10T01:11:06;100887.09;;;0.33;95.02
18652;BME280;9455;54.302;10.124;2022-12-10T01:13:33;100892.94;;;0.39;94.82
18652;BME280;9455;54.302;10.124;2022-12-10T01:16:01;100889.91;;;0.48;94.71
18652;BME280;9455;54.302;10.124;2022-12-10T01:18:27;100891.16;;;0.40;94.32
18652;BME280;9455;54.302;10.124;2022-12-10T01:20:54;100896.25;;;0.43;94.00
18652;BME280;9455;54.302;10.124;2022-12-10T01:23:22;100901.38;;;0.46;93.83
18652;BME280;9455;54.302;10.124;2022-12-10T01:25:49;100903.25;;;0.44;93.24
18652;BME280;9455;54.302;10.124;2022-12-10T01:28:15;100912.31;;;0.55;93.20
18652;BME280;9455;54.302;10.124;2022-12-10T01:30:42;100910.50;;;0.57;93.53
18652;BME280;9455;54.302;10.124;2022-12-10T01:33:08;100910.19;;;0.45;92.68
18652;BME280;9455;54.302;10.124;2022-12-10T01:35:36;100913.50;;;0.48;92.81
18652;BME280;9455;54.302;10.124;2022-12-10T01:38:02;100918.38;;;0.37;93.36
18652;BME280;9455;54.302;10.124;2022-12-10T01:40:30;100915.16;;;0.31;93.41
18652;BME280;9455;54.302;10.124;2022-12-10T01:42:57;100922.28;;;0.27;93.23
18652;BME280;9455;54.302;10.124;2022-12-10T01:45:23;100928.03;;;0.37;94.00
18652;BME280;9455;54.302;10.124;2022-12-10T01:47:50;100922.44;;;0.44;93.28
18652;BME280;9455;54.302;10.124;2022-12-10T01:50:17;100935.16;;;0.53;92.66
18652;BME280;9455;54.302;10.124;2022-12-10T01:52:43;100931.41;;;0.39;92.36
18652;BME280;9455;54.302;10.124;2022-12-10T01:55:37;100924.34;;;0.41;93.14
18652;BME280;9455;54.302;10.124;2022-12-10T01:58:04;100924.59;;;0.35;93.58
18652;BME280;9455;54.302;10.124;2022-12-10T02:00:32;100923.97;;;0.30;93.72
18652;BME280;9455;54.302;10.124;2022-12-10T02:03:04;100931.66;;;0.33;93.80
18652;BME280;9455;54.302;10.124;2022-12-10T02:05:41;100934.78;;;0.42;93.26
18652;BME280;9455;54.302;10.124;2022-12-10T02:08:14;100946.69;;;0.29;93.31
18652;BME280;9455;54.302;10.124;2022-12-10T02:10:54;100949.13;;;0.34;92.39
18652;BME280;9455;54.302;10.124;2022-12-10T02:13:27;100947.16;;;0.39;93.13
18652;BME280;9455;54.302;10.124;2022-12-10T02:15:59;100951.94;;;0.29;93.19
18652;BME280;9455;54.302;10.124;2022-12-10T02:18:31;100952.91;;;0.47;93.12
18652;BME280;9455;54.302;10.124;2022-12-10T02:21:02;100951.88;;;0.51;91.15
18652;BME280;9455;54.302;10.124;2022-12-10T02:23:35;100951.34;;;0.43;91.96
18652;BME280;9455;54.302;10.124;2022-12-10T02:26:07;100955.94;;;0.38;92.64
18652;BME280;9455;54.302;10.124;2022-12-10T02:28:41;100948.34;;;0.52;92.54
18652;BME280;9455;54.302;10.124;2022-12-10T02:31:11;100949.72;;;0.40;91.95
18652;BME280;9455;54.302;10.124;2022-12-10T02:33:43;100948.00;;;0.39;92.81
18652;BME280;9455;54.302;10.124;2022-12-10T02:36:13;100941.91;;;0.39;92.74
18652;BME280;9455;54.302;10.124;2022-12-10T02:38:41;100947.56;;;0.30;93.27
18652;BME280;9455;54.302;10.124;2022-12-10T02:41:13;100951.16;;;0.47;92.51
18652;BME280;9455;54.302;10.124;2022-12-10T02:43:42;100956.06;;;0.35;92.75
18652;BME280;9455;54.302;10.124;2022-12-10T02:46:11;100952.66;;;0.53;92.05
18652;BME280;9455;54.302;10.124;2022-12-10T02:48:39;100954.63;;;0.68;92.11
18652;BME280;9455;54.302;10.124;2022-12-10T02:51:06;100947.22;;;0.57;91.32
18652;BME280;9455;54.302;10.124;2022-12-10T02:53:33;100952.13;;;0.45;91.47
18652;BME280;9455;54.302;10.124;2022-12-10T02:56:11;100956.03;;;0.56;91.36
18652;BME280;9455;54.302;10.124;2022-12-10T02:58:49;100945.19;;;0.44;91.76
18652;BME280;9455;54.302;10.124;2022-12-10T03:01:28;100953.66;;;0.50;92.13
18652;BME280;9455;54.302;10.124;2022-12-10T03:04:06;100951.53;;;0.58;91.89
18652;BME280;9455;54.302;10.124;2022-12-10T03:06:40;100952.47;;;0.57;91.43
18652;BME280;9455;54.302;10.124;2022-12-10T03:09:12;100954.91;;;0.62;91.20
18652;BME280;9455;54.302;10.124;2022-12-10T03:11:41;100962.88;;;0.39;91.76
18652;BME280;9455;54.302;10.124;2022-12-10T03:14:13;100955.59;;;0.65;91.23
18652;BME280;9455;54.302;10.124;2022-12-10T03:16:43;100955.28;;;0.53;91.21
18652;BME280;9455;54.302;10.124;2022-12-10T03:19:15;100954.38;;;0.34;92.50
18652;BME280;9455;54.302;10.124;2022-12-10T03:21:44;100960.94;;;0.44;91.32
18652;BME280;9455;54.302;10.124;2022-12-10T03:24:13;100962.38;;;0.51;90.99
18652;BME280;9455;54.302;10.124;2022-12-10T03:26:43;100965.41;;;0.62;91.44
18652;BME280;9455;54.302;10.124;2022-12-10T03:29:22;100959.47;;;0.57;91.38
18652;BME280;9455;54.302;10.124;2022-12-10T03:31:52;100960.00;;;0.45;91.57
18652;BME280;9455;54.302;10.124;2022-12-10T03:34:20;100975.56;;;0.49;91.37
18652;BME280;9455;54.302;10.124;2022-12-10T03:36:47;100965.78;;;0.53;90.69
18652;BME280;9455;54.302;10.124;2022-12-10T03:39:15;100961.06;;;0.41;91.32
18652;BME280;9455;54.302;10.124;2022-12-10T03:41:42;100963.50;;;0.45;91.21
18652;BME280;9455;54.302;10.124;2022-12-10T03:44:09;100967.56;;;0.52;91.83
18652;BME280;9455;54.302;10.124;2022-12-10T03:46:36;100974.56;;;0.72;90.74
18652;BME280;9455;54.302;10.124;2022-12-10T03:49:04;100971.28;;;0.67;91.65
18652;BME280;9455;54.302;10.124;2022-12-10T03:51:31;100965.13;;;0.48;91.28
18652;BME280;9455;54.302;10.124;2022-12-10T03:53:58;100972.47;;;0.60;91.36
18652;BME280;9455;54.302;10.124;2022-12-10T03:56:24;100968.53;;;0.50;91.15
18652;BME280;9455;54.302;10.124;2022-12-10T03:58:51;100973.84;;;0.48;90.84
18652;BME280;9455;54.302;10.124;2022-12-10T04:01:17;100980.81;;;0.49;91.18
18652;BME280;9455;54.302;10.124;2022-12-10T04:03:44;100980.06;;;0.46;91.27
18652;BME280;9455;54.302;10.124;2022-12-10T04:06:15;100976.28;;;0.53;91.05
18652;BME280;9455;54.302;10.124;2022-12-10T04:08:41;100983.75;;;0.62;91.09
18652;BME280;9455;54.302;10.124;2022-12-10T04:11:09;100982.25;;;0.56;90.83
18652;BME280;9455;54.302;10.124;2022-12-10T04:13:37;100977.66;;;0.61;91.44
18652;BME280;9455;54.302;10.124;2022-12-10T04:16:22;100975.88;;;0.62;91.07
18652;BME280;9455;54.302;10.124;2022-12-10T04:18:57;100981.53;;;0.73;90.06
18652;BME280;9455;54.302;10.124;2022-12-10T04:21:25;100967.34;;;0.57;91.13
18652;BME280;9455;54.302;10.124;2022-12-10T04:24:10;100977.06;;;0.55;90.96
18652;BME280;9455;54.302;10.124;2022-12-10T04:26:55;100970.19;;;0.52;90.72
18652;BME280;9455;54.302;10.124;2022-12-10T04:29:24;100970.38;;;0.68;90.09
18652;BME280;9455;54.302;10.124;2022-12-10T04:31:51;100968.28;;;0.56;89.92
18652;BME280;9455;54.302;10.124;2022-12-10T04:34:18;100973.84;;;0.48;91.03
18652;BME280;9455;54.302;10.124;2022-12-10T04:36:46;100968.00;;;0.42;90.74
18652;BME280;9455;54.302;10.124;2022-12-10T04:39:14;100965.78;;;0.53;90.83
18652;BME280;9455;54.302;10.124;2022-12-10T04:41:41;100965.38;;;0.42;90.71
18652;BME280;9455;54.302;10.124;2022-12-10T04:44:08;100967.63;;;0.51;90.57
18652;BME280;9455;54.302;10.124;2022-12-10T04:46:35;100958.28;;;0.64;90.59
18652;BME280;9455;54.302;10.124;2022-12-10T04:49:02;100961.97;;;0.60;90.44
18652;BME280;9455;54.302;10.124;2022-12-10T04:51:29;100957.78;;;0.56;90.66
18652;BME280;9455;54.302;10.124;2022-12-10T04:53:58;100952.53;;;0.56;90.61
18652;BME280;9455;54.302;10.124;2022-12-10T04:56:25;100960.16;;;0.62;90.78
18652;BME280;9455;54.302;10.124;2022-12-10T04:58:51;100965.06;;;0.49;90.62
18652;BME280;9455;54.302;10.124;2022-12-10T05:01:18;100967.22;;;0.60;90.79
18652;BME280;9455;54.302;10.124;2022-12-10T05:03:45;100964.34;;;0.66;89.78
18652;BME280;9455;54.302;10.124;2022-12-10T05:06:14;100970.38;;;0.68;89.07
18652;BME280;9455;54.302;10.124;2022-12-10T05:08:42;100972.72;;;0.54;89.69
18652;BME280;9455;54.302;10.124;2022-12-10T05:11:12;100966.28;;;0.61;90.12
18652;BME280;9455;54.302;10.124;2022-12-10T05:13:40;100975.09;;;0.60;89.97
18652;BME280;9455;54.302;10.124;2022-12-10T05:16:09;100974.72;;;0.69;89.88
18652;BME280;9455;54.302;10.124;2022-12-10T05:18:36;100981.13;;;0.62;90.15
18652;BME280;9455;54.302;10.124;2022-12-10T05:21:04;100979.94;;;0.49;90.38
18652;BME280;9455;54.302;10.124;2022-12-10T05:23:32;100977.59;;;0.63;90.41
18652;BME280;9455;54.302;10.124;2022-12-10T05:26:00;100980.59;;;0.74;89.15
18652;BME280;9455;54.302;10.124;2022-12-10T05:28:29;100973.59;;;0.54;90.11
18652;BME280;9455;54.302;10.124;2022-12-10T05:30:56;100983.50;;;0.68;90.12
18652;BME280;9455;54.302;10.124;2022-12-10T05:33:24;100979.34;;;0.62;88.78
18652;BME280;9455;54.302;10.124;2022-12-10T05:35:52;100983.88;;;0.79;89.05
18652;BME280;9455;54.302;10.124;2022-12-10T05:38:19;100981.44;;;0.54;90.03
18652;BME280;9455;54.302;10.124;2022-12-10T05:40:46;100985.06;;;0.52;90.68
18652;BME280;9455;54.302;10.124;2022-12-10T05:43:12;100976.81;;;0.41;90.25
18652;BME280;9455;54.302;10.124;2022-12-10T05:45:40;100991.50;;;0.45;90.16
18652;BME280;9455;54.302;10.124;2022-12-10T05:48:08;100987.38;;;0.59;89.95
18652;BME280;9455;54.302;10.124;2022-12-10T05:50:35;100981.25;;;0.59;89.73
18652;BME280;9455;54.302;10.124;2022-12-10T05:53:02;100980.88;;;0.68;89.74
18652;BME280;9455;54.302;10.124;2022-12-10T05:55:28;100991.75;;;0.59;89.93
18652;BME280;9455;54.302;10.124;2022-12-10T05:57:56;100991.81;;;0.57;90.47
18652;BME280;9455;54.302;10.124;2022-12-10T06:00:23;100990.44;;;0.49;90.10
18652;BME280;9455;54.302;10.124;2022-12-10T06:02:51;100998.44;;;0.46;90.76
18652;BME280;9455;54.302;10.124;2022-12-10T06:05:18;100995.88;;;0.44;90.05
18652;BME280;9455;54.302;10.124;2022-12-10T06:07:44;100991.88;;;0.56;89.50
18652;BME280;9455;54.302;10.124;2022-12-10T06:10:11;100994.91;;;0.67;90.07
18652;BME280;9455;54.302;10.124;2022-12-10T06:12:37;100986.97;;;0.68;90.44
18652;BME280;9455;54.302;10.124;2022-12-10T06:15:05;101002.44;;;0.54;89.62
18652;BME280;9455;54.302;10.124;2022-12-10T06:17:32;101004.59;;;0.45;90.05
18652;BME280;9455;54.302;10.124;2022-12-10T06:20:00;101002.38;;;0.56;90.42
18652;BME280;9455;54.302;10.124;2022-12-10T06:22:27;101005.19;;;0.71;89.72
18652;BME280;9455;54.302;10.124;2022-12-10T06:24:53;101004.72;;;0.42;90.40
18652;BME280;9455;54.302;10.124;2022-12-10T06:27:20;101009.59;;;0.51;89.81
18652;BME280;9455;54.302;10.124;2022-12-10T06:29:46;101000.28;;;0.44;89.06
18652;BME280;9455;54.302;10.124;2022-12-10T06:32:13;101000.13;;;0.47;89.66
18652;BME280;9455;54.302;10.124;2022-12-10T06:34:40;101004.34;;;0.51;89.49
18652;BME280;9455;54.302;10.124;2022-12-10T06:37:08;101007.75;;;0.53;89.37
18652;BME280;9455;54.302;10.124;2022-12-10T06:39:34;101008.63;;;0.53;89.24
18652;BME280;9455;54.302;10.124;2022-12-10T06:42:01;101007.03;;;0.49;89.03
18652;BME280;9455;54.302;10.124;2022-12-10T06:44:27;101008.81;;;0.49;89.26
18652;BME280;9455;54.302;10.124;2022-12-10T06:46:54;101010.00;;;0.62;89.50
18652;BME280;9455;54.302;10.124;2022-12-10T06:49:20;101013.88;;;0.53;88.73
18652;BME280;9455;54.302;10.124;2022-12-10T06:51:47;101017.88;;;0.62;88.24
18652;BME280;9455;54.302;10.124;2022-12-10T06:54:15;101016.41;;;0.55;88.13
18652;BME280;9455;54.302;10.124;2022-12-10T06:56:42;101017.91;;;0.40;89.13
18652;BME280;9455;54.302;10.124;2022-12-10T06:59:08;101013.34;;;0.24;89.53
18652;BME280;9455;54.302;10.124;2022-12-10T07:01:37;101014.34;;;0.41;89.52
18652;BME280;9455;54.302;10.124;2022-12-10T07:04:04;101020.81;;;0.54;88.95
18652;BME280;9455;54.302;10.124;2022-12-10T07:06:31;101025.47;;;0.48;87.88
18652;BME280;9455;54.302;10.124;2022-12-10T07:08:58;101023.44;;;0.33;89.80
18652;BME280;9455;54.302;10.124;2022-12-10T07:11:25;101029.84;;;0.47;88.87
18652;BME280;9455;54.302;10.124;2022-12-10T07:13:52;101030.59;;;0.51;88.66
18652;BME280;9455;54.302;10.124;2022-12-10T07:16:20;101039.19;;;0.33;89.04
18652;BME280;9455;54.302;10.124;2022-12-10T07:18:48;101043.16;;;0.43;89.32
18652;BME280;9455;54.302;10.124;2022-12-10T07:21:16;101038.78;;;0.22;89.35
18652;BME280;9455;54.302;10.124;2022-12-10T07:23:43;101046.03;;;0.37;88.63
18652;BME280;9455;54.302;10.124;2022-12-10T07:26:10;101039.34;;;0.30;88.80
18652;BME280;9455;54.302;10.124;2022-12-10T07:28:38;101043.66;;;0.31;88.60
18652;BME280;9455;54.302;10.124;2022-12-10T07:31:06;101052.94;;;0.18;88.36
18652;BME280;9455;54.302;10.124;2022-12-10T07:33:33;101045.75;;;0.23;88.83
18652;BME280;9455;54.302;10.124;2022-12-10T07:36:03;101047.91;;;0.33;88.16
18652;BME280;9455;54.302;10.124;2022-12-10T07:38:30;101047.44;;;0.24;88.29
18652;BME280;9455;54.302;10.124;2022-12-10T07:40:57;101053.97;;;0.35;88.56
18652;BME280;9455;54.302;10.124;2022-12-10T07:43:24;101055.56;;;0.18;89.06
18652;BME280;9455;54.302;10.124;2022-12-10T07:45:51;101050.38;;;0.38;88.93
18652;BME280;9455;54.302;10.124;2022-12-10T07:48:18;101066.56;;;0.26;88.60
18652;BME280;9455;54.302;10.124;2022-12-10T07:50:45;101055.97;;;0.29;88.17
18652;BME280;9455;54.302;10.124;2022-12-10T07:53:11;101055.59;;;0.16;88.54
18652;BME280;9455;54.302;10.124;2022-12-10T07:55:38;101063.72;;;0.10;89.44
18652;BME280;9455;54.302;10.124;2022-12-10T07:58:04;101063.47;;;0.38;89.04
18652;BME280;9455;54.302;10.124;2022-12-10T08:00:31;101072.56;;;0.29;89.62
18652;BME280;9455;54.302;10.124;2022-12-10T08:02:59;101073.91;;;0.18;89.68
18652;BME280;9455;54.302;10.124;2022-12-10T08:05:25;101072.03;;;0.21;89.76
18652;BME280;9455;54.302;10.124;2022-12-10T08:07:52;101071.03;;;0.24;89.39
18652;BME280;9455;54.302;10.124;2022-12-10T08:10:19;101078.41;;;0.36;88.82
18652;BME280;9455;54.302;10.124;2022-12-10T08:12:45;101076.16;;;0.27;89.75
18652;BME280;9455;54.302;10.124;2022-12-10T08:15:12;101081.16;;;0.33;88.84
18652;BME280;9455;54.302;10.124;2022-12-10T08:17:38;101080.38;;;0.31;88.70
18652;BME280;9455;54.302;10.124;2022-12-10T08:20:08;101081.81;;;0.16;88.88
18652;BME280;9455;54.302;10.124;2022-12-10T08:22:34;101090.88;;;0.31;88.22
18652;BME280;9455;54.302;10.124;2022-12-10T08:25:01;101093.84;;;0.22;88.10
18652;BME280;9455;54.302;10.124;2022-12-10T08:27:28;101097.94;;;0.07;88.80
18652;BME280;9455;54.302;10.124;2022-12-10T08:29:54;101097.81;;;0.32;88.17
18652;BME280;9455;54.302;10.124;2022-12-10T08:32:21;101102.69;;;0.19;88.22
18652;BME280;9455;54.302;10.124;2022-12-10T08:34:48;101101.28;;;0.11;89.24
18652;BME280;9455;54.302;10.124;2022-12-10T08:37:16;101113.94;;;0.23;88.51
18652;BME280;9455;54.302;10.124;2022-12-10T08:39:42;101110.00;;;0.33;88.40
18652;BME280;9455;54.302;10.124;2022-12-10T08:42:09;101107.44;;;0.10;88.60
18652;BME280;9455;54.302;10.124;2022-12-10T08:44:36;101107.94;;;0.19;88.39
18652;BME280;9455;54.302;10.124;2022-12-10T08:47:02;101113.13;;;-0.03;88.61
18652;BME280;9455;54.302;10.124;2022-12-10T08:49:29;101112.19;;;0.00;89.80
18652;BME280;9455;54.302;10.124;2022-12-10T08:51:55;101109.38;;;0.04;89.77
18652;BME280;9455;54.302;10.124;2022-12-10T08:54:23;101119.06;;;0.03;89.50
18652;BME280;9455;54.302;10.124;2022-12-10T08:56:50;101117.97;;;0.08;89.30
18652;BME280;9455;54.302;10.124;2022-12-10T08:59:17;101115.09;;;-0.08;89.68
18652;BME280;9455;54.302;10.124;2022-12-10T09:01:43;101117.50;;;-0.02;88.96
18652;BME280;9455;54.302;10.124;2022-12-10T09:04:10;101111.50;;;-0.05;87.44
18652;BME280;9455;54.302;10.124;2022-12-10T09:06:38;101118.81;;;0.08;88.28
18652;BME280;9455;54.302;10.124;2022-12-10T09:09:04;101116.34;;;0.06;87.45
18652;BME280;9455;54.302;10.124;2022-12-10T09:11:33;101114.50;;;0.08;87.07
18652;BME280;9455;54.302;10.124;2022-12-10T09:14:01;101125.09;;;0.04;88.09
18652;BME280;9455;54.302;10.124;2022-12-10T09:16:29;101130.22;;;0.08;88.74
18652;BME280;9455;54.302;10.124;2022-12-10T09:18:56;101138.13;;;-0.16;89.37
18652;BME280;9455;54.302;10.124;2022-12-10T09:21:23;101144.69;;;-0.06;89.37
18652;BME280;9455;54.302;10.124;2022-12-10T09:23:50;101141.81;;;0.02;89.47
18652;BME280;9455;54.302;10.124;2022-12-10T09:26:17;101148.13;;;-0.04;88.95
18652;BME280;9455;54.302;10.124;2022-12-10T09:28:46;101146.31;;;-0.02;88.70
18652;BME280;9455;54.302;10.124;2022-12-10T09:31:15;101146.88;;;-0.17;89.02
18652;BME280;9455;54.302;10.124;2022-12-10T09:33:42;101150.75;;;-0.04;89.32
18652;BME280;9455;54.302;10.124;2022-12-10T09:36:10;101147.22;;;-0.26;89.33
18652;BME280;9455;54.302;10.124;2022-12-10T09:38:39;101143.53;;;-0.20;90.25
18652;BME280;9455;54.302;10.124;2022-12-10T09:41:18;101141.03;;;-0.23;89.98
18652;BME280;9455;54.302;10.124;2022-12-10T09:43:52;101146.66;;;-0.11;89.64
18652;BME280;9455;54.302;10.124;2022-12-10T09:46:25;101148.94;;;-0.02;88.79
18652;BME280;9455;54.302;10.124;2022-12-10T09:48:59;101157.53;;;0.02;89.03
18652;BME280;9455;54.302;10.124;2022-12-10T09:51:31;101152.06;;;-0.15;89.50
18652;BME280;9455;54.302;10.124;2022-12-10T09:54:18;101150.53;;;0.03;89.41
18652;BME280;9455;54.302;10.124;2022-12-10T09:56:45;101159.06;;;0.08;88.98
18652;BME280;9455;54.302;10.124;2022-12-10T09:59:17;101154.38;;;0.16;88.72
18652;BME280;9455;54.302;10.124;2022-12-10T10:01:46;101152.69;;;0.15;88.72
18652;BME280;9455;54.302;10.124;2022-12-10T10:04:15;101166.09;;;0.07;88.34
18652;BME280;9455;54.302;10.124;2022-12-10T10:06:42;101159.94;;;0.08;89.03
18652;BME280;9455;54.302;10.124;2022-12-10T10:09:11;101154.31;;;0.17;88.72
18652;BME280;9455;54.302;10.124;2022-12-10T10:11:39;101159.75;;;0.13;88.15
18652;BME280;9455;54.302;10.124;2022-12-10T10:14:10;101161.03;;;0.03;88.23
18652;BME280;9455;54.302;10.124;2022-12-10T10:16:43;101160.72;;;0.10;88.33
18652;BME280;9455;54.302;10.124;2022-12-10T10:19:13;101160.91;;;0.06;88.37
18652;BME280;9455;54.302;10.124;2022-12-10T10:21:42;101165.06;;;0.33;88.04
18652;BME280;9455;54.302;10.124;2022-12-10T10:24:13;101159.75;;;0.13;88.34
18652;BME280;9455;54.302;10.124;2022-12-10T10:26:41;101155.94;;;0.21;88.07
18652;BME280;9455;54.302;10.124;2022-12-10T10:29:11;101157.38;;;0.07;88.12
18652;BME280;9455;54.302;10.124;2022-12-10T10:31:41;101154.03;;;0.25;88.37
18652;BME280;9455;54.302;10.124;2022-12-10T10:34:14;101155.44;;;-0.12;89.21
18652;BME280;9455;54.302;10.124;2022-12-10T10:36:42;101153.31;;;-0.25;89.33
18652;BME280;9455;54.302;10.124;2022-12-10T10:39:10;101155.66;;;-0.18;89.21
18652;BME280;9455;54.302;10.124;2022-12-10T10:41:38;101160.13;;;-0.21;88.69
18652;BME280;9455;54.302;10.124;2022-12-10T10:44:13;101162.88;;;-0.01;88.56
18652;BME280;9455;54.302;10.124;2022-12-10T10:46:44;101152.34;;;-0.23;88.43
18652;BME280;9455;54.302;10.124;2022-12-10T10:49:14;101162.59;;;-0.17;88.37
18652;BME280;9455;54.302;10.124;2022-12-10T10:51:44;101159.06;;;0.08;87.77
18652;BME280;9455;54.302;10.124;2022-12-10T10:54:11;101161.34;;;-0.07;88.00
18652;BME280;9455;54.302;10.124;2022-12-10T10:56:40;101158.63;;;-0.04;87.45
18652;BME280;9455;54.302;10.124;2022-12-10T10:59:24;101157.53;;;0.02;87.69
18652;BME280;9455;54.302;10.124;2022-12-10T11:01:59;101160.59;;;0.13;87.57
18652;BME280;9455;54.302;10.124;2022-12-10T11:04:29;101159.75;;;0.13;87.23
18652;BME280;9455;54.302;10.124;2022-12-10T11:07:01;101159.50;;;0.19;87.16
18652;BME280;9455;54.302;10.124;2022-12-10T11:09:30;101158.50;;;-0.01;87.13
18652;BME280;9455;54.302;10.124;2022-12-10T11:11:59;101155.84;;;0.01;86.81
18652;BME280;9455;54.302;10.124;2022-12-10T11:14:29;101150.38;;;-0.16;87.00
18652;BME280;9455;54.302;10.124;2022-12-10T11:17:02;101158.50;;;-0.01;87.12
18652;BME280;9455;54.302;10.124;2022-12-10T11:19:29;101163.28;;;0.12;86.79
18652;BME280;9455;54.302;10.124;2022-12-10T11:22:15;101163.84;;;-0.04;87.10
18652;BME280;9455;54.302;10.124;2022-12-10T11:24:42;101151.69;;;0.17;86.99
18652;BME280;9455;54.302;10.124;2022-12-10T11:27:13;101153.53;;;-0.08;86.96
18652;BME280;9455;54.302;10.124;2022-12-10T11:29:51;101156.91;;;-0.05;86.72
18652;BME280;9455;54.302;10.124;2022-12-10T11:32:37;101153.38;;;-0.04;87.59
18652;BME280;9455;54.302;10.124;2022-12-10T11:35:12;101150.25;;;-0.13;88.14
18652;BME280;9455;54.302;10.124;2022-12-10T11:37:47;101157.13;;;-0.11;88.05
18652;BME280;9455;54.302;10.124;2022-12-10T11:40:28;101153.94;;;0.04;87.92
18652;BME280;9455;54.302;10.124;2022-12-10T11:43:04;101152.06;;;0.08;86.47
18652;BME280;9455;54.302;10.124;2022-12-10T11:45:43;101154.75;;;0.07;87.06
18652;BME280;9455;54.302;10.124;2022-12-10T11:48:24;101157.41;;;0.05;86.48
18652;BME280;9455;54.302;10.124;2022-12-10T11:50:53;101157.81;;;0.18;86.63
18652;BME280;9455;54.302;10.124;2022-12-10T11:53:46;101157.38;;;0.07;85.85
18652;BME280;9455;54.302;10.124;2022-12-10T11:56:21;101157.81;;;0.18;86.25
18652;BME280;9455;54.302;10.124;2022-12-10T11:59:05;101153.44;;;-0.05;86.67
18652;BME280;9455;54.302;10.124;2022-12-10T12:01:48;101149.84;;;-0.03;86.94
18652;BME280;9455;54.302;10.124;2022-12-10T12:04:42;101153.44;;;-0.05;86.60
18652;BME280;9455;54.302;10.124;2022-12-10T12:07:24;101152.50;;;-0.04;86.19
18652;BME280;9455;54.302;10.124;2022-12-10T12:10:08;101152.91;;;0.08;85.02
18652;BME280;9455;54.302;10.124;2022-12-10T12:12:45;101145.28;;;-0.21;85.53
18652;BME280;9455;54.302;10.124;2022-12-10T12:15:19;101142.22;;;-0.32;86.26
18652;BME280;9455;54.302;10.124;2022-12-10T12:17:51;101144.25;;;-0.17;85.60
18652;BME280;9455;54.302;10.124;2022-12-10T12:20:23;101148.03;;;-0.01;85.70
18652;BME280;9455;54.302;10.124;2022-12-10T12:22:54;101146.19;;;0.01;85.93
18652;BME280;9455;54.302;10.124;2022-12-10T12:25:25;101143.88;;;-0.06;86.12
18652;BME280;9455;54.302;10.124;2022-12-10T12:27:56;101141.75;;;-0.20;86.69
18652;BME280;9455;54.302;10.124;2022-12-10T12:30:24;101134.06;;;-0.24;87.38
18652;BME280;9455;54.302;10.124;2022-12-10T12:32:55;101135.94;;;-0.05;86.32
18652;BME280;9455;54.302;10.124;2022-12-10T12:35:30;101141.53;;;-0.14;86.90
18652;BME280;9455;54.302;10.124;2022-12-10T12:38:03;101134.75;;;0.04;86.51
18652;BME280;9455;54.302;10.124;2022-12-10T12:40:37;101132.41;;;-0.04;86.20
18652;BME280;9455;54.302;10.124;2022-12-10T12:43:10;101136.84;;;-0.06;86.63
18652;BME280;9455;54.302;10.124;2022-12-10T12:45:41;101141.75;;;-0.20;87.15
18652;BME280;9455;54.302;10.124;2022-12-10T12:48:18;101148.25;;;-0.07;87.00
18652;BME280;9455;54.302;10.124;2022-12-10T12:50:53;101149.94;;;-0.06;86.73
18652;BME280;9455;54.302;10.124;2022-12-10T12:53:22;101143.75;;;-0.03;86.40
18652;BME280;9455;54.302;10.124;2022-12-10T12:55:56;101149.91;;;-0.27;86.37
18652;BME280;9455;54.302;10.124;2022-12-10T12:58:31;101149.16;;;-0.31;86.37
18652;BME280;9455;54.302;10.124;2022-12-10T13:01:15;101145.28;;;-0.21;85.46
18652;BME280;9455;54.302;10.124;2022-12-10T13:03:45;101146.88;;;-0.17;85.57
18652;BME280;9455;54.302;10.124;2022-12-10T13:06:16;101143.13;;;-0.10;85.55
18652;BME280;9455;54.302;10.124;2022-12-10T13:08:44;101143.59;;;-0.22;84.09
18652;BME280;9455;54.302;10.124;2022-12-10T13:11:28;101150.75;;;-0.27;86.37